Anderson Dam, ID

4:24 PM MDT on October 22, 2014 (GMT -0600)
Mountain Home Air Force Base | Change Station
CLOSE
Current Station
Airport
Location: Mountain Home,
Elevation: 2995 ft
Nearby Weather Stations

Elev 2995 ft 43.04 °N, 115.87 °W | Updated 26 minutes ago

Mostly Cloudy
Mostly Cloudy
61 °F
Feels Like 61 °F
N
14
Wind Variable Wind from East

Today
High -- | Low -- °F
--% Chance of Precip.
Yesterday
High -- | Low -- °F
Precip. -- in
8:05 AM 6:48 PM
Waning Crescent, 1% visible
Pressure 30.07 in
Visibility 10.0 miles
Clouds Mostly Cloudy 10000 ft
Mostly Cloudy 20000 ft
Dew Point 34 °F
Humidity 36%
Rainfall 0.00 in
Snow Depth 1 in
UV 1 out of 12
Pollen 3.90 out of 12
Ozone Good
PM2.5 Good
Flu Activity Sporadic
METAR KMUO 222158Z 10012KT 10SM BKN100 BKN200 16/01 A3007 RMK AO2A SLP182 T01610010

More Conditions Fewer Conditions

Pressure 30.07 in
Visibility 10.0 miles
Clouds Mostly Cloudy 10000 ft
Mostly Cloudy 20000 ft
Dew Point 34 °F
Humidity 36%
Rainfall 0.00 in
Snow Depth 1 in
UV 1 out of 12
Pollen 3.90 out of 12
Ozone Good
PM2.5 Good
Flu Activity Sporadic
METAR KMUO 222158Z 10012KT 10SM BKN100 BKN200 16/01 A3007 RMK AO2A SLP182 T01610010

More Conditions Fewer Conditions

10-Day Weather Forecast

Almanac

Astronomy

Oct. 22, 2014 Rise Set
Actual Time 8:05 AM MDT 6:48 PM MDT
Civil Twilight 7:36 AM MDT 7:17 PM MDT
Nautical Twilight 7:02 AM MDT 7:50 PM MDT
Astronomical Twilight 6:29 AM MDT 8:23 PM MDT
Moon 6:48 AM MDT 6:19 PM MDT
Length of Visible Light 11h 41m
Length of Day
10h 43m
Tomorrow will be 2m 45s shorter.
Waning Crescent, 1% of the Moon is Illuminated
Today
Waning Crescent
Oct 23
New
Oct 30
First Quarter
Nov 6
Full
Nov 14
Last Quarter

Today's Extremes

State Highs State Lows

Community

WunderPhotos

Upload Photos

1,764,064 photos uploaded!

WunderBlogs® & News

Nearby

Air Quality

  Air Quality AQ Index Pollutant
Yesterday Good
OZONE
Yesterday Good
PM10
Current Good
OZONE
Current Good
PM2.5
Wednesday Good
OZONE
Wednesday Good
PM2.5
Thursday Good
OZONE
Friday Good
OZONE

Snow Depth

Station Depth Elevation
Camas Creek Divide 1 in 5710 ft
Trinity Mountain 2 in 7770 ft
Bogus Basin 0 in 6340 ft
Atlanta Summit 0 in 7580 ft
Mud Flat 1 in 5730 ft

Earthquake Activity

City Distance Mag. Time & Date
No recent earthquake activity has been reported nearby.
Minimum magnitude displayed is 2.5.

Coastal Water Temperatures

Place Temperature
No Stations Reporting

Nearby Weather Stations